Time;durP1;ratioP1;P1;durP2;ratioP2;P2;SDS_P1;SDS_P2;PMS_P1;PMS_P2;Temp;Humidity;BMP_temperature;BMP_pressure;BME280_temperature;BME280_humidity;BME280_pressure;Samples;Min_cycle;Max_cycle;Signal;HPM_P1;HPM_P2
2020/12/09 05:02:24;;;;;;;52.22;27.00;;;3.90;99.90;;;;;;5157562;23;20313;-69
2020/12/09 05:04:51;;;;;;;53.72;25.67;;;3.80;99.90;;;;;;5011230;28;20674;-70
2020/12/09 05:07:18;;;;;;;57.55;27.40;;;3.80;99.90;;;;;;5009712;28;20299;-70
2020/12/09 05:09:45;;;;;;;51.72;28.60;;;3.80;99.90;;;;;;4991985;28;20623;-69
2020/12/09 05:12:13;;;;;;;54.75;26.70;;;3.80;99.90;;;;;;4993492;28;20628;-69
2020/12/09 05:14:47;;;;;;;59.90;29.35;;;3.80;99.90;;;;;;4992128;28;20208;-69
2020/12/09 05:17:16;;;;;;;62.78;26.13;;;3.80;99.90;;;;;;4992050;28;20204;-69
2020/12/09 05:19:44;;;;;;;47.30;22.95;;;3.80;99.90;;;;;;4991818;28;20234;-69
2020/12/09 05:22:15;;;;;;;55.90;26.10;;;3.80;99.90;;;;;;4990839;28;20228;-69
2020/12/09 05:24:41;;;;;;;51.63;25.45;;;3.80;99.90;;;;;;4991884;28;20208;-69
2020/12/09 05:27:07;;;;;;;58.15;29.58;;;3.80;99.90;;;;;;4991656;28;20692;-69
2020/12/09 05:29:33;;;;;;;59.70;25.92;;;3.90;99.90;;;;;;4991754;28;20208;-70
2020/12/09 05:32:00;;;;;;;58.88;27.60;;;3.90;99.90;;;;;;4992907;28;20306;-69
2020/12/09 05:34:31;;;;;;;59.70;26.45;;;3.90;99.90;;;;;;4996102;28;20215;-69
2020/12/09 05:37:00;;;;;;;60.50;28.88;;;3.90;99.90;;;;;;4994845;28;20575;-69
2020/12/09 05:39:26;;;;;;;67.93;28.80;;;3.90;99.90;;;;;;4995500;28;20278;-69
2020/12/09 05:41:53;;;;;;;61.53;29.23;;;3.90;99.90;;;;;;4994138;28;20286;-70
2020/12/09 05:44:21;;;;;;;62.85;28.30;;;3.90;99.90;;;;;;4995269;28;20344;-69
2020/12/09 05:46:58;;;;;;;60.70;28.02;;;3.90;99.90;;;;;;4995072;28;20204;-70
2020/12/09 05:49:26;;;;;;;58.58;28.73;;;3.90;99.90;;;;;;4995698;28;20210;-70
2020/12/09 05:52:10;;;;;;;54.65;28.73;;;3.90;99.90;;;;;;4993309;28;20251;-70
2020/12/09 05:54:37;;;;;;;57.15;28.20;;;3.80;99.90;;;;;;4993912;28;20200;-70
2020/12/09 05:57:05;;;;;;;54.65;26.50;;;3.90;99.90;;;;;;4995012;28;20258;-71
2020/12/09 05:59:32;;;;;;;59.60;28.05;;;3.80;99.90;;;;;;4995239;28;20282;-71
2020/12/09 06:02:12;;;;;;;54.97;29.13;;;3.90;99.90;;;;;;4993811;28;20290;-71
2020/12/09 06:04:49;;;;;;;59.08;28.00;;;3.90;99.90;;;;;;4993932;28;20211;-71
2020/12/09 06:07:17;;;;;;;59.83;29.50;;;3.90;99.90;;;;;;4990903;28;20251;-71
2020/12/09 06:10:03;;;;;;;65.63;29.25;;;3.90;99.90;;;;;;4994406;28;20668;-71
2020/12/09 06:12:29;;;;;;;58.95;30.60;;;3.90;99.90;;;;;;4988207;28;20223;-70
2020/12/09 06:15:12;;;;;;;64.38;27.85;;;3.80;99.90;;;;;;4994445;28;20238;-69
2020/12/09 06:17:39;;;;;;;60.70;27.80;;;3.80;99.90;;;;;;4975600;28;20282;-69
2020/12/09 06:20:05;;;;;;;58.33;28.35;;;3.80;99.90;;;;;;4977054;28;20310;-69
2020/12/09 06:22:32;;;;;;;69.03;31.55;;;3.80;99.90;;;;;;4994002;28;20208;-69
2020/12/09 06:25:02;;;;;;;60.95;28.13;;;3.80;99.90;;;;;;4994195;28;20207;-69
2020/12/09 06:27:31;;;;;;;60.85;30.25;;;3.80;99.90;;;;;;4994363;28;20610;-70
2020/12/09 06:29:57;;;;;;;59.10;29.48;;;3.80;99.90;;;;;;4994148;28;20676;-69
2020/12/09 06:32:23;;;;;;;65.22;30.70;;;3.80;99.90;;;;;;4993478;28;20609;-70
2020/12/09 06:35:04;;;;;;;54.70;27.05;;;3.80;99.90;;;;;;4994269;28;20211;-70
2020/12/09 06:37:31;;;;;;;62.33;28.77;;;3.80;99.90;;;;;;4994398;28;20207;-69
2020/12/09 06:40:08;;;;;;;61.55;29.25;;;3.80;99.90;;;;;;4993019;28;20295;-69
2020/12/09 06:42:34;;;;;;;74.53;30.33;;;3.80;99.90;;;;;;4993430;28;20288;-71
2020/12/09 06:45:02;;;;;;;56.35;28.63;;;3.80;99.90;;;;;;4993783;28;20299;-70
2020/12/09 06:47:28;;;;;;;59.72;27.20;;;3.80;99.90;;;;;;4989390;28;20204;-71
2020/12/09 06:49:55;;;;;;;67.45;29.58;;;3.80;99.90;;;;;;4987853;28;20207;-71
2020/12/09 06:52:33;;;;;;;57.28;27.10;;;3.80;99.90;;;;;;4992228;28;20238;-71
2020/12/09 06:55:01;;;;;;;51.33;27.10;;;3.80;99.90;;;;;;4992725;28;20212;-71
2020/12/09 06:57:29;;;;;;;67.30;28.00;;;3.80;99.90;;;;;;4993166;28;20668;-69
2020/12/09 07:00:21;;;;;;;72.13;30.33;;;3.80;99.90;;;;;;4992937;28;20223;-70
2020/12/09 07:02:49;;;;;;;64.18;30.27;;;3.80;99.90;;;;;;4992103;28;20208;-71
2020/12/09 07:05:20;;;;;;;65.18;30.73;;;3.80;99.90;;;;;;4992627;28;20223;-70
2020/12/09 07:07:51;;;;;;;58.38;30.33;;;3.70;99.90;;;;;;4973870;28;20244;-71
2020/12/09 07:10:24;;;;;;;66.10;29.75;;;3.80;99.90;;;;;;4974818;28;20200;-70
2020/12/09 07:13:00;;;;;;;60.92;27.83;;;3.80;99.90;;;;;;4973467;28;20645;-70
2020/12/09 07:15:27;;;;;;;69.32;29.70;;;3.70;99.90;;;;;;4975618;28;20262;-70
2020/12/09 07:17:53;;;;;;;73.88;29.23;;;3.70;99.90;;;;;;4973554;28;20307;-70
2020/12/09 07:20:19;;;;;;;56.03;28.92;;;3.70;99.90;;;;;;4976186;28;20266;-70
2020/12/09 07:22:46;;;;;;;61.85;31.48;;;3.70;99.90;;;;;;4992955;28;20258;-70
2020/12/09 07:25:13;;;;;;;68.53;29.98;;;3.80;99.90;;;;;;4992739;28;20214;-71
2020/12/09 07:27:39;;;;;;;72.70;31.20;;;3.70;99.90;;;;;;4992491;28;20583;-70
2020/12/09 07:30:07;;;;;;;70.18;30.67;;;3.80;99.90;;;;;;4992709;28;20212;-70
2020/12/09 07:32:33;;;;;;;60.17;27.92;;;3.70;99.90;;;;;;4991837;28;20231;-70
2020/12/09 07:35:01;;;;;;;72.97;30.90;;;3.70;99.90;;;;;;4993252;28;20555;-70
2020/12/09 07:37:30;;;;;;;68.40;31.25;;;3.70;99.90;;;;;;4992443;28;20610;-69
2020/12/09 07:39:59;;;;;;;72.47;28.35;;;3.70;99.90;;;;;;4992566;28;20263;-69
2020/12/09 07:42:26;;;;;;;67.57;31.38;;;3.70;99.90;;;;;;4991866;28;20665;-69
2020/12/09 07:44:53;;;;;;;70.43;30.63;;;3.70;99.90;;;;;;4992193;28;20286;-69
2020/12/09 07:47:24;;;;;;;71.18;28.17;;;3.70;99.90;;;;;;4992797;28;20208;-69
2020/12/09 07:49:55;;;;;;;66.20;31.27;;;3.70;99.90;;;;;;4989161;28;20260;-70
2020/12/09 07:52:23;;;;;;;73.03;31.67;;;3.70;99.90;;;;;;4983308;28;20224;-69
2020/12/09 07:54:55;;;;;;;63.63;30.58;;;3.70;99.90;;;;;;4980098;28;20208;-69
2020/12/09 07:57:23;;;;;;;62.20;29.58;;;3.70;99.90;;;;;;4991120;28;20289;-69
2020/12/09 07:59:55;;;;;;;71.82;32.15;;;3.70;99.90;;;;;;4992492;28;20235;-70
2020/12/09 08:02:22;;;;;;;67.35;31.30;;;3.70;99.90;;;;;;4990873;28;20373;-70
2020/12/09 08:05:05;;;;;;;69.35;29.65;;;3.70;99.90;;;;;;4991324;28;20204;-69
2020/12/09 08:07:31;;;;;;;69.75;29.45;;;3.70;99.90;;;;;;4992083;28;20295;-70
2020/12/09 08:10:11;;;;;;;62.05;31.42;;;3.70;99.90;;;;;;4991879;28;20212;-69
2020/12/09 08:12:40;;;;;;;71.70;29.20;;;3.70;99.90;;;;;;4992503;28;20294;-69
2020/12/09 08:15:08;;;;;;;61.85;29.73;;;3.70;99.90;;;;;;4991867;28;20274;-69
2020/12/09 08:17:34;;;;;;;71.63;30.83;;;3.70;99.90;;;;;;4991924;28;20210;-69
2020/12/09 08:20:03;;;;;;;64.85;30.10;;;3.70;99.90;;;;;;4991988;28;20228;-69
2020/12/09 08:22:29;;;;;;;74.63;31.42;;;3.70;99.90;;;;;;4984228;28;20244;-69
2020/12/09 08:25:04;;;;;;;68.70;31.35;;;3.70;99.90;;;;;;4987705;28;20214;-69
2020/12/09 08:27:37;;;;;;;88.35;31.33;;;3.70;99.90;;;;;;4992424;28;20238;-69
2020/12/09 08:30:08;;;;;;;73.82;30.98;;;3.70;99.90;;;;;;4982674;28;20207;-69
2020/12/09 08:33:07;;;;;;;70.65;32.10;;;3.70;99.90;;;;;;4980176;28;20230;-69
2020/12/09 08:35:48;;;;;;;70.13;29.50;;;3.70;99.90;;;;;;4974814;28;20983;-70
2020/12/09 08:38:29;;;;;;;73.43;31.38;;;3.70;99.90;;;;;;4990657;28;20216;-69
2020/12/09 08:40:57;;;;;;;66.53;30.80;;;3.70;99.90;;;;;;4988585;28;20235;-69
2020/12/09 08:43:25;;;;;;;76.10;31.90;;;3.60;99.90;;;;;;4987193;28;20254;-69
2020/12/09 08:45:53;;;;;;;60.42;31.10;;;3.60;99.90;;;;;;4988965;28;20266;-69
2020/12/09 08:48:19;;;;;;;65.57;30.70;;;3.60;99.90;;;;;;4990593;28;20207;-69
2020/12/09 08:50:46;;;;;;;76.15;30.60;;;3.60;99.90;;;;;;4987253;28;20231;-69
2020/12/09 08:53:13;;;;;;;89.35;39.60;;;3.70;99.90;;;;;;4988991;28;20456;-69
2020/12/09 08:55:41;;;;;;;79.20;35.03;;;3.70;99.90;;;;;;4989457;28;20214;-68
2020/12/09 08:58:07;;;;;;;77.75;34.40;;;3.70;99.90;;;;;;4991862;28;20239;-68
2020/12/09 09:00:36;;;;;;;76.40;31.48;;;3.70;99.90;;;;;;4992366;28;20263;-69
2020/12/09 09:03:03;;;;;;;80.65;30.77;;;3.70;99.90;;;;;;4990563;28;20358;-69
2020/12/09 09:05:29;;;;;;;64.60;28.65;;;3.70;99.90;;;;;;4990895;28;20235;-69
2020/12/09 09:07:56;;;;;;;72.07;28.67;;;3.70;99.90;;;;;;4995361;28;20235;-69
2020/12/09 09:10:22;;;;;;;75.05;33.25;;;3.70;99.90;;;;;;4994677;28;20246;-69
2020/12/09 09:12:49;;;;;;;63.35;28.90;;;3.70;99.90;;;;;;4994674;28;20216;-69
2020/12/09 09:15:15;;;;;;;69.40;30.58;;;3.70;99.90;;;;;;4994743;28;20262;-69
2020/12/09 09:17:41;;;;;;;79.05;32.58;;;3.70;99.90;;;;;;4994328;28;20683;-69
2020/12/09 09:20:08;;;;;;;59.28;27.63;;;3.70;99.90;;;;;;4994660;28;20232;-69
2020/12/09 09:22:34;;;;;;;76.63;32.35;;;3.70;99.90;;;;;;4993335;28;20714;-69
2020/12/09 09:25:01;;;;;;;68.10;31.23;;;3.70;99.90;;;;;;4984391;28;20644;-69
2020/12/09 09:27:27;;;;;;;67.13;29.75;;;3.70;99.90;;;;;;4994045;28;20204;-69
2020/12/09 09:29:53;;;;;;;74.72;30.60;;;3.70;99.90;;;;;;4995511;28;20664;-69
2020/12/09 09:32:20;;;;;;;65.30;30.30;;;3.70;99.90;;;;;;4993825;28;20243;-69
2020/12/09 09:34:46;;;;;;;73.20;31.95;;;3.70;99.90;;;;;;4994568;28;20196;-69
2020/12/09 09:37:13;;;;;;;74.03;31.63;;;3.70;99.90;;;;;;4994462;28;20212;-69
2020/12/09 09:39:39;;;;;;;63.15;29.27;;;3.70;99.90;;;;;;4995174;28;20239;-69
2020/12/09 09:42:05;;;;;;;67.95;30.15;;;3.80;99.90;;;;;;4993520;28;20242;-69
2020/12/09 09:44:31;;;;;;;66.55;29.92;;;3.80;99.90;;;;;;4991127;28;20656;-69
2020/12/09 09:46:58;;;;;;;64.60;29.15;;;3.80;99.90;;;;;;4993943;28;20687;-69
2020/12/09 09:49:24;;;;;;;67.60;29.15;;;3.80;99.90;;;;;;4994384;28;20203;-67
2020/12/09 09:51:52;;;;;;;64.78;30.23;;;3.80;99.90;;;;;;4993299;28;20227;-69
2020/12/09 09:54:19;;;;;;;71.13;31.15;;;3.80;99.90;;;;;;4992718;28;20270;-68
2020/12/09 09:56:45;;;;;;;81.40;32.63;;;3.80;99.90;;;;;;4993728;28;20973;-68
2020/12/09 09:59:11;;;;;;;62.20;33.22;;;3.90;99.90;;;;;;4994011;28;20219;-69
2020/12/09 10:01:38;;;;;;;64.55;32.17;;;3.90;99.90;;;;;;4993259;28;20762;-69
2020/12/09 10:04:08;;;;;;;61.78;29.67;;;3.90;99.90;;;;;;4993417;28;20199;-69
2020/12/09 10:06:34;;;;;;;62.75;29.70;;;3.90;99.90;;;;;;4993341;28;20238;-69
2020/12/09 10:09:00;;;;;;;57.22;28.33;;;3.90;99.90;;;;;;4987340;28;20687;-70
2020/12/09 10:11:27;;;;;;;67.95;31.05;;;3.90;99.90;;;;;;4993965;28;20582;-69
2020/12/09 10:13:53;;;;;;;58.28;29.10;;;4.00;99.90;;;;;;4992776;28;20203;-69
2020/12/09 10:16:24;;;;;;;58.65;26.73;;;3.90;99.90;;;;;;4993443;28;20215;-70
2020/12/09 10:18:51;;;;;;;59.78;29.88;;;3.90;99.90;;;;;;4994073;28;20249;-69
2020/12/09 10:21:22;;;;;;;61.05;27.45;;;4.00;99.90;;;;;;4993247;28;20228;-69
2020/12/09 10:23:48;;;;;;;65.60;30.48;;;4.00;99.90;;;;;;4988784;28;20208;-70
2020/12/09 10:26:15;;;;;;;53.92;27.70;;;4.00;99.90;;;;;;4993230;28;20273;-70
2020/12/09 10:28:42;;;;;;;67.40;29.90;;;4.10;99.90;;;;;;4993641;28;20204;-69
2020/12/09 10:31:08;;;;;;;59.67;29.45;;;4.10;99.90;;;;;;4992469;28;20255;-69
2020/12/09 10:33:34;;;;;;;59.78;30.25;;;4.10;99.90;;;;;;4988568;28;20212;-69
2020/12/09 10:36:00;;;;;;;63.40;30.90;;;4.10;99.90;;;;;;4989404;28;20247;-69
2020/12/09 10:38:26;;;;;;;68.70;29.83;;;4.10;99.90;;;;;;4992410;28;20195;-69
2020/12/09 10:40:53;;;;;;;64.25;30.92;;;4.10;99.90;;;;;;4992343;28;20228;-70
2020/12/09 10:43:19;;;;;;;59.85;27.95;;;4.10;99.90;;;;;;4990430;28;20200;-70
2020/12/09 10:45:46;;;;;;;60.50;27.52;;;4.10;99.90;;;;;;4982859;28;20284;-69
2020/12/09 10:48:12;;;;;;;57.25;29.10;;;4.20;99.90;;;;;;4993344;28;20204;-69
2020/12/09 10:50:38;;;;;;;59.15;29.25;;;4.20;99.90;;;;;;4993187;28;20232;-69
2020/12/09 10:53:04;;;;;;;60.08;28.77;;;4.10;99.90;;;;;;4990820;28;20893;-69
2020/12/09 10:55:31;;;;;;;61.33;30.45;;;4.20;99.90;;;;;;4992309;28;20203;-69
2020/12/09 10:57:57;;;;;;;61.72;28.15;;;4.10;99.90;;;;;;4989724;28;20243;-69
2020/12/09 11:00:23;;;;;;;61.45;29.42;;;4.20;99.90;;;;;;4989192;28;20223;-69
2020/12/09 11:02:50;;;;;;;56.75;31.70;;;4.20;99.90;;;;;;4991261;28;20258;-69
2020/12/09 11:05:17;;;;;;;58.60;30.13;;;4.30;99.90;;;;;;4989985;28;20270;-68
2020/12/09 11:07:43;;;;;;;62.25;29.48;;;4.30;99.90;;;;;;4988986;28;20258;-69
2020/12/09 11:10:09;;;;;;;54.78;28.75;;;4.30;99.90;;;;;;4988288;28;20624;-70
2020/12/09 11:12:35;;;;;;;50.15;22.55;;;4.30;99.90;;;;;;4989003;28;20605;-70
2020/12/09 11:15:01;;;;;;;56.83;26.92;;;4.20;99.90;;;;;;4992464;28;20254;-69
2020/12/09 11:17:27;;;;;;;61.97;28.33;;;4.20;99.90;;;;;;4990421;28;20691;-70
2020/12/09 11:19:54;;;;;;;58.90;24.77;;;4.20;99.90;;;;;;4988234;28;20615;-69
2020/12/09 11:22:20;;;;;;;53.22;28.65;;;4.20;99.90;;;;;;4988532;28;20649;-70
2020/12/09 11:24:47;;;;;;;60.72;27.48;;;4.20;99.90;;;;;;4988054;28;20208;-69
2020/12/09 11:27:13;;;;;;;46.78;23.45;;;4.20;99.90;;;;;;4992509;28;20216;-69
2020/12/09 11:29:40;;;;;;;53.10;26.98;;;4.30;99.90;;;;;;4990929;28;20204;-69
2020/12/09 11:32:06;;;;;;;57.28;27.83;;;4.30;99.90;;;;;;4990942;28;20684;-70
2020/12/09 11:34:33;;;;;;;58.90;26.70;;;4.30;99.90;;;;;;4991371;28;20695;-69
2020/12/09 11:37:00;;;;;;;52.97;25.75;;;4.30;99.90;;;;;;4989929;28;20294;-69
2020/12/09 11:39:27;;;;;;;52.80;25.25;;;4.30;99.90;;;;;;4992198;28;20258;-69
2020/12/09 11:41:56;;;;;;;40.15;21.83;;;4.30;99.90;;;;;;4991432;28;20304;-69
2020/12/09 11:44:23;;;;;;;48.72;26.38;;;4.30;99.90;;;;;;4990969;28;20204;-69
2020/12/09 11:46:49;;;;;;;51.90;25.85;;;4.30;99.90;;;;;;4989352;28;20221;-69
2020/12/09 11:49:15;;;;;;;52.75;28.08;;;4.20;99.90;;;;;;4990309;28;20215;-69
2020/12/09 11:51:41;;;;;;;48.63;25.83;;;4.20;99.90;;;;;;4991075;28;20596;-69
2020/12/09 11:54:08;;;;;;;52.75;25.77;;;4.30;99.90;;;;;;4990185;28;20204;-69
2020/12/09 11:56:34;;;;;;;55.53;28.42;;;4.30;99.90;;;;;;4989092;28;20263;-69
2020/12/09 11:59:00;;;;;;;56.92;27.50;;;4.20;99.90;;;;;;4989811;28;20617;-69
2020/12/09 12:01:26;;;;;;;51.47;25.17;;;4.20;99.90;;;;;;4991392;28;20595;-69
2020/12/09 12:03:53;;;;;;;62.78;28.00;;;4.20;99.90;;;;;;4990399;28;20218;-69
2020/12/09 12:06:22;;;;;;;55.55;27.10;;;4.30;99.90;;;;;;4991151;28;20307;-69
2020/12/09 12:08:50;;;;;;;56.42;27.05;;;4.30;99.90;;;;;;4992071;28;20214;-69
2020/12/09 12:11:18;;;;;;;56.20;27.60;;;4.30;99.90;;;;;;4990460;28;20266;-69
2020/12/09 12:13:44;;;;;;;59.00;29.35;;;4.40;99.90;;;;;;4988456;28;20289;-67
2020/12/09 12:16:14;;;;;;;58.30;27.52;;;4.40;99.90;;;;;;4991167;28;20298;-67
2020/12/09 12:18:40;;;;;;;44.38;22.45;;;4.30;99.90;;;;;;4990921;28;20562;-68
2020/12/09 12:21:07;;;;;;;52.65;25.30;;;4.40;99.90;;;;;;4991467;28;20227;-68
2020/12/09 12:23:33;;;;;;;54.70;27.00;;;4.30;99.90;;;;;;4989941;28;20628;-69
2020/12/09 12:25:59;;;;;;;48.05;24.80;;;4.30;99.90;;;;;;4991478;28;20282;-68
2020/12/09 12:28:27;;;;;;;47.03;25.40;;;4.30;99.90;;;;;;4992268;28;20301;-68
2020/12/09 12:30:54;;;;;;;54.78;26.13;;;4.30;99.90;;;;;;4991833;28;20224;-68
2020/12/09 12:33:20;;;;;;;48.65;26.02;;;4.30;99.90;;;;;;4990786;28;20750;-68
2020/12/09 12:35:46;;;;;;;46.03;27.00;;;4.30;99.90;;;;;;4991738;28;20207;-68
2020/12/09 12:38:12;;;;;;;53.50;26.33;;;4.30;99.90;;;;;;4991732;28;20204;-68
2020/12/09 12:40:38;;;;;;;47.10;22.48;;;4.30;99.90;;;;;;4993678;28;20227;-67
2020/12/09 12:43:04;;;;;;;48.30;26.65;;;4.20;99.90;;;;;;4995132;28;20265;-67
2020/12/09 12:45:31;;;;;;;53.35;27.33;;;4.20;99.90;;;;;;4995966;28;20215;-67
2020/12/09 12:47:57;;;;;;;51.33;26.10;;;4.30;99.90;;;;;;4995307;28;20200;-67
2020/12/09 12:50:23;;;;;;;50.00;24.27;;;4.30;99.90;;;;;;4995562;28;20251;-67
2020/12/09 12:52:50;;;;;;;56.35;27.55;;;4.20;99.90;;;;;;4995139;28;20207;-68
2020/12/09 12:55:16;;;;;;;51.13;26.70;;;4.20;99.90;;;;;;4995268;28;20211;-68
2020/12/09 12:57:42;;;;;;;49.78;26.92;;;4.20;99.90;;;;;;4996048;28;20207;-68
2020/12/09 13:00:08;;;;;;;51.88;25.33;;;4.20;99.90;;;;;;4994938;28;20231;-68
2020/12/09 13:02:35;;;;;;;54.67;25.45;;;4.30;99.90;;;;;;4992503;28;20215;-68
2020/12/09 13:05:02;;;;;;;54.20;26.23;;;4.30;99.90;;;;;;4995558;28;20208;-68
2020/12/09 13:07:28;;;;;;;49.03;27.05;;;4.30;99.90;;;;;;4995110;28;20650;-68
2020/12/09 13:09:54;;;;;;;55.22;27.83;;;4.20;99.90;;;;;;4995372;28;20215;-69
2020/12/09 13:12:21;;;;;;;57.78;26.33;;;4.20;99.90;;;;;;4994614;28;20346;-69
2020/12/09 13:14:47;;;;;;;53.30;26.30;;;4.20;99.90;;;;;;4997475;28;20215;-69
2020/12/09 13:17:13;;;;;;;45.55;25.30;;;4.20;99.90;;;;;;4998568;28;20200;-68
2020/12/09 13:19:40;;;;;;;63.90;27.83;;;4.20;99.90;;;;;;4998811;28;20208;-68
2020/12/09 13:22:06;;;;;;;52.05;25.88;;;4.20;99.90;;;;;;4996566;28;20255;-68
2020/12/09 13:24:33;;;;;;;55.35;27.75;;;4.20;99.90;;;;;;4998489;28;20619;-68
2020/12/09 13:26:59;;;;;;;48.92;24.55;;;4.30;99.90;;;;;;4998765;28;20211;-68
2020/12/09 13:29:26;;;;;;;50.20;24.27;;;4.30;99.90;;;;;;4997823;28;20212;-68
2020/12/09 13:31:52;;;;;;;47.22;25.58;;;4.30;99.90;;;;;;4996517;28;20255;-68
2020/12/09 13:34:19;;;;;;;53.00;23.95;;;4.20;99.90;;;;;;4996032;28;20684;-68
2020/12/09 13:36:45;;;;;;;48.67;26.05;;;4.20;99.90;;;;;;4996308;28;20208;-68
2020/12/09 13:39:12;;;;;;;43.97;24.38;;;4.10;99.90;;;;;;4996654;28;20203;-68
2020/12/09 13:41:38;;;;;;;52.38;24.55;;;4.10;99.90;;;;;;4995143;28;20223;-69
2020/12/09 13:44:04;;;;;;;53.20;27.38;;;4.10;99.90;;;;;;4995988;28;20234;-68
2020/12/09 13:46:30;;;;;;;49.65;26.88;;;4.10;99.90;;;;;;4994832;28;20208;-69
2020/12/09 13:48:56;;;;;;;52.85;26.60;;;4.10;99.90;;;;;;4994301;28;20255;-68
2020/12/09 13:51:24;;;;;;;49.88;22.75;;;4.10;99.90;;;;;;4992987;28;20239;-68
2020/12/09 13:53:51;;;;;;;44.55;25.58;;;4.10;99.90;;;;;;4993309;28;20211;-70
2020/12/09 13:56:17;;;;;;;54.10;25.15;;;4.10;99.90;;;;;;4993588;28;20688;-68
2020/12/09 13:58:43;;;;;;;48.05;23.92;;;4.10;99.90;;;;;;4994258;28;20625;-68
2020/12/09 14:01:12;;;;;;;45.90;23.98;;;4.10;99.90;;;;;;4993108;28;20665;-68
2020/12/09 14:03:38;;;;;;;35.75;20.58;;;4.10;99.90;;;;;;4992425;28;20238;-68
2020/12/09 14:06:05;;;;;;;48.08;24.30;;;4.10;99.90;;;;;;4994055;28;20208;-67
2020/12/09 14:08:31;;;;;;;49.83;27.02;;;4.10;99.90;;;;;;4994211;28;20290;-67
2020/12/09 14:10:58;;;;;;;48.78;25.17;;;4.10;99.90;;;;;;4992442;28;20220;-68
2020/12/09 14:13:24;;;;;;;36.58;20.60;;;4.10;99.90;;;;;;4991545;28;20552;-69
2020/12/09 14:15:52;;;;;;;51.80;23.63;;;4.10;99.90;;;;;;4990204;28;20219;-67
2020/12/09 14:18:18;;;;;;;42.75;22.25;;;4.10;99.90;;;;;;4994350;28;20271;-67
2020/12/09 14:20:44;;;;;;;44.75;24.83;;;4.10;99.90;;;;;;4992373;28;20257;-67
2020/12/09 14:23:10;;;;;;;49.75;23.17;;;4.10;99.90;;;;;;4993820;28;20345;-68
2020/12/09 14:25:37;;;;;;;55.58;25.75;;;4.10;99.90;;;;;;4993013;28;20524;-68
2020/12/09 14:28:03;;;;;;;45.92;23.75;;;4.10;99.90;;;;;;4992391;28;20250;-68
2020/12/09 14:30:30;;;;;;;57.40;26.10;;;4.10;99.90;;;;;;4992746;28;20270;-68
2020/12/09 14:32:56;;;;;;;59.65;31.92;;;4.10;99.90;;;;;;4992743;28;20884;-68
2020/12/09 14:35:22;;;;;;;49.90;26.52;;;4.10;99.90;;;;;;4993468;28;20286;-68
2020/12/09 14:37:48;;;;;;;49.85;23.95;;;4.10;99.90;;;;;;4993792;28;20220;-68
2020/12/09 14:40:16;;;;;;;52.30;26.77;;;4.10;99.90;;;;;;4992009;28;20246;-68
2020/12/09 14:42:42;;;;;;;48.50;24.52;;;4.00;99.90;;;;;;4992521;28;20674;-68
2020/12/09 14:45:09;;;;;;;45.55;21.75;;;4.10;99.90;;;;;;4993678;28;20223;-68
2020/12/09 14:47:35;;;;;;;54.20;26.42;;;4.00;99.90;;;;;;4993309;28;20224;-68
2020/12/09 14:50:02;;;;;;;53.28;26.05;;;4.00;99.90;;;;;;4992816;28;20262;-68
2020/12/09 14:52:28;;;;;;;49.28;22.65;;;4.00;99.90;;;;;;4992867;28;20684;-68
2020/12/09 14:54:54;;;;;;;57.53;25.08;;;4.00;99.90;;;;;;4993380;28;20208;-68
2020/12/09 14:57:20;;;;;;;57.97;26.52;;;4.00;99.90;;;;;;4993781;28;20664;-68
2020/12/09 14:59:46;;;;;;;50.05;24.42;;;4.00;99.90;;;;;;4993064;28;20262;-68
2020/12/09 15:02:13;;;;;;;54.60;26.77;;;4.00;99.90;;;;;;4991295;28;20708;-68
2020/12/09 15:04:40;;;;;;;59.60;25.80;;;4.00;99.90;;;;;;4992863;28;20200;-68
2020/12/09 15:07:06;;;;;;;55.78;25.42;;;4.00;99.90;;;;;;4983994;28;20588;-68
2020/12/09 15:09:32;;;;;;;60.05;26.38;;;4.00;99.90;;;;;;4992107;28;20273;-67
2020/12/09 15:11:58;;;;;;;56.75;27.13;;;4.00;99.90;;;;;;4991633;28;20377;-68
2020/12/09 15:14:24;;;;;;;58.38;25.52;;;4.00;99.90;;;;;;4993405;28;20214;-68
2020/12/09 15:16:50;;;;;;;56.38;25.55;;;4.00;99.90;;;;;;4993033;28;20212;-67
2020/12/09 15:19:17;;;;;;;63.97;29.42;;;4.00;99.90;;;;;;4992903;28;20245;-67
2020/12/09 15:21:45;;;;;;;62.63;25.77;;;4.00;99.90;;;;;;4991467;28;20274;-67
2020/12/09 15:24:12;;;;;;;65.60;27.40;;;4.00;99.90;;;;;;4992971;28;20203;-67
2020/12/09 15:26:40;;;;;;;50.78;26.08;;;4.00;99.90;;;;;;4993031;28;20360;-67
2020/12/09 15:29:06;;;;;;;57.92;27.10;;;4.00;99.90;;;;;;4992862;28;20245;-67
2020/12/09 15:31:32;;;;;;;68.53;29.38;;;4.00;99.90;;;;;;4991503;28;20227;-68
2020/12/09 15:33:58;;;;;;;61.15;28.30;;;4.00;99.90;;;;;;4992680;28;20216;-68
2020/12/09 15:36:25;;;;;;;69.47;31.55;;;4.10;99.90;;;;;;4992600;28;20335;-67
2020/12/09 15:38:52;;;;;;;64.40;28.42;;;4.10;99.90;;;;;;4992632;28;20211;-69
2020/12/09 15:41:18;;;;;;;59.00;27.63;;;4.20;99.90;;;;;;4990774;28;20240;-67
2020/12/09 15:43:44;;;;;;;74.78;32.58;;;4.10;99.90;;;;;;4992448;28;20215;-67
2020/12/09 15:46:11;;;;;;;66.03;30.95;;;4.10;99.90;;;;;;4991732;28;20199;-67
2020/12/09 15:48:38;;;;;;;64.80;30.13;;;4.10;99.90;;;;;;4988639;28;20211;-67
2020/12/09 15:51:04;;;;;;;58.92;29.73;;;4.10;99.90;;;;;;4991481;28;20321;-69
2020/12/09 15:53:32;;;;;;;71.50;30.92;;;4.00;99.90;;;;;;4989977;28;20204;-69
2020/12/09 15:55:59;;;;;;;60.10;29.75;;;4.00;99.90;;;;;;4985436;28;20215;-69
2020/12/09 15:58:25;;;;;;;69.03;30.23;;;4.00;99.90;;;;;;4991654;28;20624;-69
2020/12/09 16:00:52;;;;;;;75.85;30.67;;;4.00;99.90;;;;;;4990343;28;20242;-70
2020/12/09 16:03:21;;;;;;;70.63;31.50;;;4.00;99.90;;;;;;4991539;28;20505;-69
2020/12/09 16:05:47;;;;;;;65.72;29.73;;;4.00;99.90;;;;;;4990904;28;20204;-69
2020/12/09 16:08:14;;;;;;;68.38;31.92;;;4.00;99.90;;;;;;4991407;28;20234;-69
2020/12/09 16:10:41;;;;;;;72.53;31.35;;;4.10;99.90;;;;;;4990057;28;20227;-68
2020/12/09 16:13:08;;;;;;;70.47;30.92;;;4.10;99.90;;;;;;4991245;28;20208;-69
2020/12/09 16:15:34;;;;;;;68.32;31.23;;;4.10;99.90;;;;;;4991560;28;20220;-69
2020/12/09 16:18:00;;;;;;;73.65;29.45;;;4.00;99.90;;;;;;4989687;28;20208;-69
2020/12/09 16:20:29;;;;;;;63.50;27.73;;;4.00;99.90;;;;;;4987645;28;20236;-69
2020/12/09 16:22:55;;;;;;;67.40;30.05;;;4.00;99.90;;;;;;4991215;28;20656;-68
2020/12/09 16:25:21;;;;;;;68.45;28.10;;;4.10;99.90;;;;;;4991526;28;20199;-70
2020/12/09 16:27:48;;;;;;;68.90;29.98;;;4.00;99.90;;;;;;4990149;28;20203;-70
2020/12/09 16:30:14;;;;;;;67.13;30.33;;;4.00;99.90;;;;;;4987279;28;20204;-70
2020/12/09 16:32:45;;;;;;;56.75;24.67;;;4.10;99.90;;;;;;4989183;28;20234;-70
2020/12/09 16:35:11;;;;;;;55.00;26.92;;;4.00;99.90;;;;;;4991371;28;20346;-70
2020/12/09 16:37:37;;;;;;;65.93;27.42;;;4.00;99.90;;;;;;4991061;28;20208;-70
2020/12/09 16:40:03;;;;;;;50.55;26.40;;;3.90;99.90;;;;;;4989354;28;20204;-70
2020/12/09 16:42:31;;;;;;;60.72;32.60;;;4.00;99.90;;;;;;4988536;28;20228;-70
2020/12/09 16:44:58;;;;;;;52.25;24.98;;;3.90;99.90;;;;;;4992003;28;20254;-70
2020/12/09 16:47:24;;;;;;;51.33;24.98;;;3.90;99.90;;;;;;4993837;28;20575;-70
2020/12/09 16:49:50;;;;;;;43.33;21.30;;;3.90;99.90;;;;;;4996901;28;20328;-71
2020/12/09 16:52:16;;;;;;;46.33;23.38;;;3.90;99.90;;;;;;4992366;28;20338;-70
2020/12/09 16:54:43;;;;;;;53.60;24.45;;;3.90;99.90;;;;;;4993146;28;20200;-71
2020/12/09 16:57:10;;;;;;;51.00;23.73;;;3.90;99.90;;;;;;4993459;28;20216;-71
2020/12/09 16:59:36;;;;;;;51.45;22.70;;;4.00;99.90;;;;;;4993092;28;20207;-71
2020/12/09 17:02:03;;;;;;;53.60;25.20;;;4.00;99.90;;;;;;4991768;28;20259;-70
2020/12/09 17:04:30;;;;;;;59.33;24.75;;;4.10;99.90;;;;;;4993591;28;20911;-70
2020/12/09 17:06:56;;;;;;;62.90;27.67;;;4.10;99.90;;;;;;4988197;28;20262;-69
2020/12/09 17:09:22;;;;;;;53.25;27.38;;;4.10;99.90;;;;;;4990849;28;20208;-69
2020/12/09 17:11:50;;;;;;;57.55;25.52;;;4.20;99.90;;;;;;4991289;28;20311;-68
2020/12/09 17:14:16;;;;;;;51.83;25.00;;;4.10;99.90;;;;;;4991674;28;20265;-69
2020/12/09 17:16:42;;;;;;;55.65;25.77;;;4.10;99.90;;;;;;4991538;28;20216;-68
2020/12/09 17:19:09;;;;;;;65.50;27.25;;;4.10;99.90;;;;;;4990388;28;20208;-70
2020/12/09 17:21:35;;;;;;;55.70;25.85;;;4.10;99.90;;;;;;4990597;28;20231;-68
2020/12/09 17:24:01;;;;;;;61.40;26.50;;;4.10;99.90;;;;;;4990713;28;20199;-69
2020/12/09 17:26:28;;;;;;;53.45;24.42;;;4.10;99.90;;;;;;4992033;28;20290;-68
2020/12/09 17:28:56;;;;;;;55.50;28.15;;;4.10;99.90;;;;;;4994591;28;20208;-69
2020/12/09 17:31:22;;;;;;;62.33;28.42;;;4.10;99.90;;;;;;4994546;28;20222;-69
2020/12/09 17:33:51;;;;;;;61.45;28.48;;;4.10;99.90;;;;;;4993969;28;20248;-68
2020/12/09 17:36:20;;;;;;;59.35;27.55;;;4.00;99.90;;;;;;4993559;28;20318;-69
2020/12/09 17:38:46;;;;;;;70.53;27.33;;;4.00;99.90;;;;;;4994525;28;20232;-69